Terminal Aerodrome Forecast
Issued by NWS

Home | Current Version | Previous Version | Text Only | Print | Product List | Glossary On
Versions: 1 2 3 4 5 6 7 8 9 10 11 12 13 14 15 16 17 18 19 20 21 22 23 24 25 26 27 28
000
FTUS45 KPSR 192340 AAA
TAFIWA
TAF AMD
KIWA 192340Z 2000/2024 26018G25KT P6SM BKN200
      TEMPO 2000/2001 26020G30KT 6SM BLDU
     FM200300 25010G17KT P6SM FEW200
     FM200700 25008KT P6SM FEW100
     FM201000 13005KT P6SM FEW100
     FM201800 26010KT P6SM SKC
      AMD LTD TO CLD VIS AND WIND 2003/2013=

USA.gov is the U.S. government's official web portal to all federal, state and local government web resources and services.